createdAt,value
2023-02-24T00:02:05.724Z,58.39
2023-02-24T00:04:41.374Z,58.60
2023-02-24T00:07:13.095Z,58.54
2023-02-24T00:09:41.409Z,58.68
2023-02-24T00:12:14.674Z,59.06
2023-02-24T00:14:45.582Z,58.88
2023-02-24T00:17:14.785Z,59.08
2023-02-24T00:19:43.046Z,59.13
2023-02-24T00:22:11.719Z,59.23
2023-02-24T00:24:40.302Z,59.16
2023-02-24T00:27:12.761Z,59.33
2023-02-24T00:29:45.871Z,59.40
2023-02-24T00:32:15.086Z,59.67
2023-02-24T00:34:44.629Z,59.51
2023-02-24T00:37:15.669Z,59.60
2023-02-24T00:39:47.309Z,59.69
2023-02-24T00:42:15.523Z,59.61
2023-02-24T00:44:45.366Z,60.05
2023-02-24T00:47:13.836Z,59.84
2023-02-24T00:49:43.529Z,59.70
2023-02-24T00:52:16.625Z,59.94
2023-02-24T00:54:48.013Z,59.88
2023-02-24T00:57:18.551Z,60.01
2023-02-24T00:59:48.424Z,59.90
2023-02-24T01:02:16.753Z,60.06
2023-02-24T01:04:46.251Z,59.97
2023-02-24T01:07:15.105Z,59.80
2023-02-24T01:09:44.475Z,59.76
2023-02-24T01:12:22.045Z,59.87
2023-02-24T01:14:52.239Z,60.02
2023-02-24T01:17:20.692Z,59.84
2023-02-24T01:19:50.054Z,60.03
2023-02-24T01:22:19.776Z,59.83
2023-02-24T01:24:48.616Z,59.93
2023-02-24T01:27:19.222Z,59.95
2023-02-24T01:29:47.953Z,59.86
2023-02-24T01:32:19.482Z,59.77
2023-02-24T01:34:48.180Z,59.88
2023-02-24T01:37:16.655Z,59.90
2023-02-24T01:39:45.472Z,59.99
2023-02-24T01:42:21.739Z,60.25
2023-02-24T01:44:52.382Z,60.25
2023-02-24T01:47:21.417Z,60.38
2023-02-24T01:49:51.648Z,60.41
2023-02-24T01:52:24.451Z,60.25
2023-02-24T01:54:55.344Z,60.30
2023-02-24T01:57:24.369Z,60.38
2023-02-24T01:59:54.196Z,60.39
2023-02-24T02:02:22.725Z,60.34
2023-02-24T02:04:53.876Z,60.54
2023-02-24T02:07:24.628Z,60.50
2023-02-24T02:09:55.967Z,60.66
2023-02-24T02:12:27.343Z,60.57
2023-02-24T02:14:59.559Z,60.61
2023-02-24T02:17:32.811Z,60.71
2023-02-24T02:20:17.735Z,60.85
2023-02-24T02:22:55.814Z,60.90
2023-02-24T02:25:46.892Z,60.86
2023-02-24T02:28:31.817Z,60.86
2023-02-24T02:31:06.685Z,60.93
2023-02-24T02:34:05.756Z,61.07
2023-02-24T02:36:54.916Z,61.16
2023-02-24T02:39:41.360Z,60.99
2023-02-24T02:42:25.412Z,60.72
2023-02-24T02:45:09.458Z,60.75
2023-02-24T02:47:54.051Z,60.81
2023-02-24T02:50:36.845Z,61.07
2023-02-24T02:53:12.305Z,60.94
2023-02-24T02:55:42.275Z,61.04
2023-02-24T02:58:14.962Z,60.98
2023-02-24T03:01:01.879Z,61.07
2023-02-24T03:03:40.474Z,61.07
2023-02-24T03:06:33.217Z,60.98
2023-02-24T03:09:30.598Z,61.00
2023-02-24T03:12:02.364Z,60.99
2023-02-24T03:14:37.719Z,61.10
2023-02-24T03:17:08.806Z,61.19
2023-02-24T03:19:41.289Z,61.13
2023-02-24T03:22:14.964Z,61.11
2023-02-24T03:24:45.922Z,61.19
2023-02-24T03:27:26.348Z,61.08
2023-02-24T03:29:58.586Z,61.28
2023-02-24T03:32:33.738Z,61.37
2023-02-24T03:35:08.455Z,61.17
2023-02-24T03:37:37.070Z,61.17
2023-02-24T03:40:12.125Z,61.26
2023-02-24T03:42:43.664Z,61.04
2023-02-24T03:45:12.058Z,61.14
2023-02-24T03:47:41.137Z,61.00
2023-02-24T03:50:15.546Z,61.08
2023-02-24T03:53:30.950Z,60.89
2023-02-24T03:56:02.183Z,60.81
2023-02-24T03:58:47.925Z,60.90
2023-02-24T04:01:26.293Z,60.73
2023-02-24T04:04:11.967Z,60.71
2023-02-24T04:06:59.346Z,60.49
2023-02-24T04:09:57.365Z,60.42
2023-02-24T04:12:36.559Z,60.47
2023-02-24T04:15:13.058Z,60.55
2023-02-24T04:17:46.645Z,60.36
2023-02-24T04:20:16.866Z,60.42
2023-02-24T04:22:59.739Z,60.43
2023-02-24T04:25:28.169Z,60.51
2023-02-24T04:27:59.025Z,60.56
2023-02-24T04:30:29.846Z,60.48
2023-02-24T04:32:58.510Z,60.63
2023-02-24T04:35:29.675Z,60.60
2023-02-24T04:37:57.929Z,60.46
2023-02-24T04:40:27.240Z,60.53
2023-02-24T04:42:55.617Z,60.43
2023-02-24T04:45:28.384Z,60.52
2023-02-24T04:48:01.252Z,60.46
2023-02-24T04:50:32.964Z,60.44
2023-02-24T04:53:07.384Z,60.60
2023-02-24T04:55:40.177Z,60.49
2023-02-24T04:58:19.499Z,60.53
2023-02-24T05:00:53.004Z,60.51
2023-02-24T05:03:30.058Z,60.51
2023-02-24T05:06:02.278Z,60.43
2023-02-24T05:08:31.928Z,60.52
2023-02-24T05:11:05.870Z,60.52
2023-02-24T05:13:34.728Z,60.48
2023-02-24T05:16:07.421Z,60.60
2023-02-24T05:18:37.403Z,60.58
2023-02-24T05:21:32.327Z,60.60
2023-02-24T05:24:06.640Z,60.59
2023-02-24T05:26:44.816Z,60.41
2023-02-24T05:29:31.740Z,60.50
2023-02-24T05:32:05.861Z,60.40
2023-02-24T05:34:42.952Z,60.35
2023-02-24T05:37:11.122Z,60.57
2023-02-24T05:39:41.338Z,60.56
2023-02-24T05:42:21.867Z,60.69
2023-02-24T05:44:50.292Z,60.42
2023-02-24T05:47:26.339Z,60.44
2023-02-24T05:49:59.411Z,60.51
2023-02-24T05:52:27.896Z,60.53
2023-02-24T05:54:56.482Z,60.67
2023-02-24T05:57:34.478Z,60.56
2023-02-24T06:00:14.375Z,60.67
2023-02-24T06:02:53.201Z,60.82
2023-02-24T06:05:38.777Z,60.72
2023-02-24T06:08:11.999Z,60.75
2023-02-24T06:10:42.930Z,60.71
2023-02-24T06:13:13.428Z,60.69
2023-02-24T06:15:47.191Z,60.66
2023-02-24T06:18:17.607Z,60.63
2023-02-24T06:20:51.384Z,60.62
2023-02-24T06:23:26.920Z,60.72
2023-02-24T06:25:58.328Z,60.58
2023-02-24T06:28:26.571Z,60.67
2023-02-24T06:31:05.328Z,60.56
2023-02-24T06:33:39.696Z,60.52
2023-02-24T06:36:09.827Z,60.51
2023-02-24T06:38:40.381Z,60.58
2023-02-24T06:41:11.473Z,60.70
2023-02-24T06:43:45.084Z,60.69
2023-02-24T06:49:01.641Z,60.93
2023-02-24T06:51:34.265Z,60.84
2023-02-24T06:54:02.944Z,60.90
2023-02-24T06:56:38.928Z,60.97
2023-02-24T06:59:07.504Z,60.98
2023-02-24T07:01:45.438Z,60.91
2023-02-24T07:04:13.699Z,60.94
2023-02-24T07:06:43.919Z,60.95
2023-02-24T07:09:13.712Z,60.87
2023-02-24T07:11:52.804Z,60.73
2023-02-24T07:14:23.090Z,60.61
2023-02-24T07:16:55.096Z,60.57
2023-02-24T07:19:33.553Z,60.55
2023-02-24T07:22:13.249Z,60.54
2023-02-24T07:24:46.693Z,60.63
2023-02-24T07:27:22.717Z,60.54
2023-02-24T07:29:53.198Z,60.37
2023-02-24T07:32:22.623Z,60.46
2023-02-24T07:34:51.759Z,60.40
2023-02-24T07:37:20.826Z,60.48
2023-02-24T07:42:39.394Z,60.40
2023-02-24T07:45:09.145Z,60.43
2023-02-24T07:47:46.157Z,60.31
2023-02-24T07:50:18.718Z,60.31
2023-02-24T07:52:48.241Z,60.50
2023-02-24T07:55:18.265Z,60.50
2023-02-24T07:57:48.855Z,60.32
2023-02-24T08:00:28.457Z,60.15
2023-02-24T08:02:58.331Z,60.12
2023-02-24T08:05:30.731Z,60.16
2023-02-24T08:08:03.449Z,60.07
2023-02-24T08:10:37.166Z,59.98
2023-02-24T08:13:12.256Z,59.95
2023-02-24T08:15:40.732Z,59.78
2023-02-24T08:18:16.111Z,59.76
2023-02-24T08:21:07.951Z,59.66
2023-02-24T08:23:47.358Z,59.66
2023-02-24T08:26:23.749Z,59.49
2023-02-24T08:28:54.952Z,59.43
2023-02-24T08:31:26.538Z,59.19
2023-02-24T08:33:58.731Z,59.30
2023-02-24T08:36:28.914Z,59.38
2023-02-24T08:38:59.990Z,59.64
2023-02-24T08:41:51.525Z,59.62
2023-02-24T08:44:23.137Z,59.43
2023-02-24T08:46:52.603Z,59.20
2023-02-24T08:49:28.024Z,59.24
2023-02-24T08:52:02.834Z,59.25
2023-02-24T08:54:32.234Z,59.30
2023-02-24T08:57:18.544Z,59.46
2023-02-24T08:59:57.873Z,59.32
2023-02-24T09:02:29.561Z,59.48
2023-02-24T09:05:00.506Z,59.49
2023-02-24T09:07:42.788Z,59.55
2023-02-24T09:10:18.296Z,59.50
2023-02-24T09:12:56.787Z,59.55
2023-02-24T09:15:41.536Z,59.72
2023-02-24T09:18:30.430Z,59.70
2023-02-24T09:21:36.687Z,59.78
2023-02-24T09:24:07.868Z,59.71
2023-02-24T09:26:43.679Z,59.48
2023-02-24T09:29:49.446Z,59.51
2023-02-24T09:32:18.120Z,59.41
2023-02-24T09:34:50.993Z,59.45
2023-02-24T09:37:27.158Z,59.60
2023-02-24T09:39:58.571Z,59.65
2023-02-24T09:42:49.302Z,59.63
2023-02-24T09:45:35.381Z,59.43
2023-02-24T09:48:10.530Z,59.36
2023-02-24T09:51:04.419Z,59.41
2023-02-24T09:53:49.591Z,59.26
2023-02-24T09:56:37.369Z,59.17
2023-02-24T09:59:26.517Z,59.19
2023-02-24T10:02:15.168Z,59.07
2023-02-24T10:05:07.363Z,59.01
2023-02-24T10:07:40.973Z,58.92
2023-02-24T10:10:28.271Z,59.03
2023-02-24T10:13:17.195Z,59.03
2023-02-24T10:15:57.434Z,58.92
2023-02-24T10:18:33.263Z,58.77
2023-02-24T10:21:07.128Z,58.86
2023-02-24T10:24:05.818Z,58.95
2023-02-24T10:27:07.420Z,58.88
2023-02-24T10:29:46.463Z,58.67
2023-02-24T10:32:24.229Z,58.32
2023-02-24T10:34:57.945Z,58.03
2023-02-24T10:37:29.621Z,58.02
2023-02-24T10:39:59.879Z,58.12
2023-02-24T10:42:32.830Z,57.96
2023-02-24T10:45:18.545Z,57.96
2023-02-24T10:47:57.097Z,58.15
2023-02-24T10:50:32.337Z,58.05
2023-02-24T10:53:07.723Z,58.24
2023-02-24T10:55:44.301Z,58.31
2023-02-24T10:58:49.226Z,58.26
2023-02-24T11:01:21.381Z,58.24
2023-02-24T11:04:12.576Z,58.41
2023-02-24T11:07:03.287Z,58.49
2023-02-24T11:09:35.470Z,58.61
2023-02-24T11:12:25.418Z,58.74
2023-02-24T11:15:13.886Z,58.63
2023-02-24T11:17:51.204Z,58.64
2023-02-24T11:20:47.863Z,58.85
2023-02-24T11:23:23.097Z,58.93
2023-02-24T11:25:58.473Z,59.04
2023-02-24T11:28:33.738Z,59.10
2023-02-24T11:31:09.606Z,59.16
2023-02-24T11:33:42.876Z,59.22
2023-02-24T11:36:23.144Z,59.13
2023-02-24T11:39:17.818Z,59.13
2023-02-24T11:41:53.953Z,58.96
2023-02-24T11:44:56.808Z,58.97
2023-02-24T11:47:39.834Z,59.22
2023-02-24T11:50:34.166Z,59.38
2023-02-24T11:53:05.268Z,59.44
2023-02-24T11:55:42.659Z,59.38
2023-02-24T11:58:23.454Z,59.26
2023-02-24T12:00:57.916Z,59.25
2023-02-24T12:03:41.005Z,59.36
2023-02-24T12:06:17.154Z,59.47
2023-02-24T12:08:50.705Z,59.38
2023-02-24T12:11:43.324Z,59.17
2023-02-24T12:14:21.391Z,58.99
2023-02-24T12:16:55.034Z,58.91
2023-02-24T12:19:34.776Z,58.84
2023-02-24T12:22:12.339Z,58.84
2023-02-24T12:24:47.623Z,58.97
2023-02-24T12:27:18.648Z,58.91
2023-02-24T12:30:06.651Z,59.03
2023-02-24T12:32:47.128Z,59.36
2023-02-24T12:35:20.112Z,59.48
2023-02-24T12:37:48.590Z,59.55
2023-02-24T12:40:23.562Z,59.63
2023-02-24T12:43:02.715Z,59.71
2023-02-24T12:45:48.112Z,59.75
2023-02-24T12:48:25.513Z,59.86
2023-02-24T12:51:06.064Z,60.02
2023-02-24T12:53:53.005Z,60.03
2023-02-24T12:56:28.979Z,60.10
2023-02-24T12:59:00.293Z,60.04
2023-02-24T13:01:46.955Z,60.08
2023-02-24T13:04:18.068Z,59.98
2023-02-24T13:07:01.459Z,59.91
2023-02-24T13:09:39.446Z,59.88
2023-02-24T13:12:17.577Z,59.82
2023-02-24T13:14:46.605Z,59.75
2023-02-24T13:17:15.379Z,59.74
2023-02-24T13:19:44.758Z,59.91
2023-02-24T13:22:12.841Z,59.92
2023-02-24T13:25:10.646Z,59.79
2023-02-24T13:27:42.035Z,59.81
2023-02-24T13:30:18.466Z,60.06
2023-02-24T13:32:47.361Z,60.04
2023-02-24T13:35:19.027Z,60.04
2023-02-24T13:37:47.676Z,60.21
2023-02-24T13:40:18.897Z,60.30
2023-02-24T13:42:56.974Z,60.35
2023-02-24T13:45:29.330Z,60.49
2023-02-24T13:48:19.860Z,60.62
2023-02-24T13:51:00.212Z,60.74
2023-02-24T13:53:58.988Z,60.74
2023-02-24T13:56:56.717Z,60.77
2023-02-24T14:00:10.366Z,60.99
2023-02-24T14:02:47.745Z,60.88
2023-02-24T14:05:24.258Z,61.03
2023-02-24T14:07:53.465Z,61.18
2023-02-24T14:10:27.353Z,61.36
2023-02-24T14:13:08.279Z,61.67
2023-02-24T14:15:36.780Z,61.66
2023-02-24T14:18:05.775Z,61.87
2023-02-24T14:20:35.493Z,61.95
2023-02-24T14:23:35.504Z,62.18
2023-02-24T14:26:12.401Z,62.20
2023-02-24T14:28:40.914Z,62.24
2023-02-24T14:31:11.157Z,62.30
2023-02-24T14:33:40.941Z,62.38
2023-02-24T14:36:27.780Z,62.63
2023-02-24T14:39:04.695Z,62.81
2023-02-24T14:41:34.665Z,62.80
2023-02-24T14:44:23.427Z,62.90
2023-02-24T14:46:56.545Z,62.98
2023-02-24T14:49:28.201Z,63.07
2023-02-24T14:52:02.638Z,63.19
2023-02-24T14:55:00.204Z,63.20
2023-02-24T14:57:37.396Z,63.28
2023-02-24T15:00:24.406Z,63.35
2023-02-24T15:03:16.044Z,63.43
2023-02-24T15:05:52.704Z,63.48
2023-02-24T15:08:26.809Z,63.49
2023-02-24T15:10:56.070Z,63.63
2023-02-24T15:13:40.216Z,63.55
2023-02-24T15:16:12.651Z,63.64
2023-02-24T15:18:41.659Z,63.63
2023-02-24T15:21:22.123Z,63.63
2023-02-24T15:24:19.079Z,63.74
2023-02-24T15:26:59.402Z,63.85
2023-02-24T15:29:29.508Z,63.81
2023-02-24T15:32:00.029Z,63.75
2023-02-24T15:34:31.511Z,63.87
2023-02-24T15:37:25.744Z,63.88
2023-02-24T15:40:10.854Z,64.08
2023-02-24T15:42:39.043Z,64.16
2023-02-24T15:45:24.764Z,64.25
2023-02-24T15:47:54.684Z,64.32
2023-02-24T15:50:23.048Z,64.25
2023-02-24T15:52:51.237Z,64.32
2023-02-24T15:55:22.073Z,64.36
2023-02-24T15:57:57.417Z,64.40
2023-02-24T16:00:25.685Z,64.37
2023-02-24T16:02:54.469Z,64.28
2023-02-24T16:05:22.939Z,64.18
2023-02-24T16:07:54.972Z,64.20
2023-02-24T16:10:25.128Z,64.15
2023-02-24T16:12:56.233Z,64.13
2023-02-24T16:15:35.675Z,64.09
2023-02-24T16:18:03.846Z,64.03
2023-02-24T16:20:34.292Z,64.10
2023-02-24T16:23:04.122Z,64.13
2023-02-24T16:25:38.582Z,64.25
2023-02-24T16:28:06.816Z,64.30
2023-02-24T16:30:35.695Z,64.34
2023-02-24T16:33:04.265Z,64.26
2023-02-24T16:35:32.631Z,64.32
2023-02-24T16:38:00.814Z,64.28
2023-02-24T16:40:33.910Z,64.22
2023-02-24T16:43:02.306Z,64.20
2023-02-24T16:45:31.342Z,64.22
2023-02-24T16:48:02.213Z,64.16
2023-02-24T16:50:41.270Z,64.19
2023-02-24T16:53:17.446Z,64.23
2023-02-24T16:55:51.282Z,64.38
2023-02-24T16:58:20.315Z,64.37
2023-02-24T17:00:52.422Z,64.34
2023-02-24T17:03:26.103Z,64.34
2023-02-24T17:05:54.637Z,64.28
2023-02-24T17:08:23.113Z,64.29
2023-02-24T17:10:51.186Z,64.28
2023-02-24T17:13:21.348Z,64.42
2023-02-24T17:15:55.335Z,64.42
2023-02-24T17:18:25.150Z,64.36
2023-02-24T17:20:53.480Z,64.41
2023-02-24T17:23:22.601Z,64.53
2023-02-24T17:25:53.902Z,64.54
2023-02-24T17:28:22.204Z,64.52
2023-02-24T17:30:50.701Z,64.54
2023-02-24T17:33:18.994Z,64.66
2023-02-24T17:35:47.798Z,64.71
2023-02-24T17:38:17.764Z,64.82
2023-02-24T17:40:48.540Z,65.00
2023-02-24T17:43:16.720Z,65.15
2023-02-24T17:45:49.883Z,65.73
2023-02-24T17:48:19.686Z,66.01
2023-02-24T17:50:47.774Z,66.51
2023-02-24T17:53:16.023Z,67.08
2023-02-24T17:56:01.600Z,67.68
2023-02-24T17:58:33.909Z,68.41
2023-02-24T18:01:02.468Z,69.22
2023-02-24T18:03:32.100Z,69.51
2023-02-24T18:06:08.615Z,69.98
2023-02-24T18:08:37.383Z,70.68
2023-02-24T18:11:06.273Z,70.83
2023-02-24T18:13:39.613Z,71.25
2023-02-24T18:16:14.761Z,71.73
2023-02-24T18:18:46.095Z,71.95
2023-02-24T18:21:15.661Z,72.60
2023-02-24T18:23:45.028Z,72.89
2023-02-24T18:26:23.497Z,73.06
2023-02-24T18:28:55.497Z,73.17
2023-02-24T18:31:27.635Z,73.19
2023-02-24T18:33:58.562Z,73.67
2023-02-24T18:36:27.029Z,73.97
2023-02-24T18:38:56.817Z,74.06
2023-02-24T18:41:25.125Z,74.06
2023-02-24T18:43:59.322Z,74.05
2023-02-24T18:46:27.730Z,74.25
2023-02-24T18:48:58.212Z,74.40
2023-02-24T18:51:26.803Z,74.68
2023-02-24T18:53:57.168Z,74.67
2023-02-24T18:56:26.561Z,74.85
2023-02-24T18:58:58.434Z,74.96
2023-02-24T19:01:36.705Z,74.98
2023-02-24T19:04:05.179Z,75.08
2023-02-24T19:06:34.454Z,75.23
2023-02-24T19:09:07.555Z,75.43
2023-02-24T19:11:36.306Z,75.73
2023-02-24T19:14:05.523Z,76.05
2023-02-24T19:16:34.131Z,76.16
2023-02-24T19:19:03.731Z,76.34
2023-02-24T19:21:35.877Z,76.48
2023-02-24T19:24:08.243Z,76.52
2023-02-24T19:26:39.046Z,76.51
2023-02-24T19:29:07.076Z,76.52
2023-02-24T19:31:36.744Z,76.57
2023-02-24T19:34:07.513Z,76.49
2023-02-24T19:36:36.639Z,76.35
2023-02-24T19:39:05.792Z,76.35
2023-02-24T19:41:38.518Z,76.14
2023-02-24T19:44:18.026Z,75.99
2023-02-24T19:46:50.065Z,75.83
2023-02-24T19:49:18.205Z,75.68
2023-02-24T19:51:48.256Z,75.64
2023-02-24T19:54:17.286Z,75.54
2023-02-24T19:56:45.902Z,75.48
2023-02-24T19:59:14.802Z,75.38
2023-02-24T20:01:42.967Z,75.32
2023-02-24T20:04:12.990Z,75.25
2023-02-24T20:06:41.268Z,75.15
2023-02-24T20:09:12.416Z,74.97
2023-02-24T20:11:44.373Z,74.82
2023-02-24T20:14:13.542Z,74.71
2023-02-24T20:16:42.314Z,74.59
2023-02-24T20:19:12.676Z,74.48
2023-02-24T20:21:41.949Z,74.38
2023-02-24T20:24:13.861Z,74.25
2023-02-24T20:26:43.709Z,74.13
2023-02-24T20:29:11.986Z,74.08
2023-02-24T20:31:40.905Z,74.18
2023-02-24T20:34:10.796Z,74.04
2023-02-24T20:36:40.995Z,73.89
2023-02-24T20:39:12.615Z,73.77
2023-02-24T20:41:41.271Z,73.66
2023-02-24T20:44:10.814Z,73.65
2023-02-24T20:46:38.972Z,73.65
2023-02-24T20:49:09.058Z,73.55
2023-02-24T20:51:38.401Z,73.52
2023-02-24T20:54:06.872Z,73.46
2023-02-24T20:56:38.237Z,73.50
2023-02-24T20:59:17.864Z,73.37
2023-02-24T21:01:47.520Z,73.27
2023-02-24T21:04:18.069Z,73.20
2023-02-24T21:06:51.707Z,73.21
2023-02-24T21:09:25.302Z,73.18
2023-02-24T21:11:56.036Z,73.32
2023-02-24T21:14:24.289Z,73.32
2023-02-24T21:16:55.911Z,73.28
2023-02-24T21:19:24.050Z,73.33
2023-02-24T21:21:52.121Z,73.33
2023-02-24T21:24:21.351Z,73.36
2023-02-24T21:26:49.992Z,73.29
2023-02-24T21:29:18.127Z,73.33
2023-02-24T21:31:47.126Z,73.26
2023-02-24T21:34:18.931Z,73.26
2023-02-24T21:36:47.414Z,73.16
2023-02-24T21:39:15.648Z,73.10
2023-02-24T21:41:44.864Z,73.02
2023-02-24T21:44:14.967Z,73.04
2023-02-24T21:46:43.095Z,72.91
2023-02-24T21:49:14.489Z,72.88
2023-02-24T21:51:45.965Z,72.92
2023-02-24T21:54:14.386Z,72.78
2023-02-24T21:56:43.008Z,72.76
2023-02-24T21:59:11.447Z,72.71
2023-02-24T22:01:41.920Z,72.87
2023-02-24T22:04:12.331Z,72.92
2023-02-24T22:06:41.816Z,72.89
2023-02-24T22:09:12.544Z,72.89
2023-02-24T22:11:41.354Z,72.84
2023-02-24T22:14:10.899Z,72.86
2023-02-24T22:16:40.144Z,72.89
2023-02-24T22:19:08.223Z,73.04
2023-02-24T22:21:39.777Z,73.22
2023-02-24T22:24:09.135Z,73.27
2023-02-24T22:26:40.300Z,73.42
2023-02-24T22:29:09.039Z,73.43
2023-02-24T22:31:39.262Z,73.51
2023-02-24T22:34:08.963Z,73.70
2023-02-24T22:36:37.582Z,73.92
2023-02-24T22:39:06.460Z,74.11
2023-02-24T22:41:34.949Z,74.15
2023-02-24T22:44:04.868Z,74.30
2023-02-24T22:46:35.558Z,74.31
2023-02-24T22:49:05.366Z,74.38
2023-02-24T22:51:33.956Z,74.37
2023-02-24T22:54:02.165Z,74.38
2023-02-24T22:56:31.155Z,74.39
2023-02-24T22:59:01.541Z,74.65
2023-02-24T23:01:32.281Z,74.72
2023-02-24T23:04:02.122Z,74.74
2023-02-24T23:06:30.982Z,74.78
2023-02-24T23:09:00.122Z,74.73
2023-02-24T23:11:33.876Z,74.80
2023-02-24T23:14:03.899Z,74.79
2023-02-24T23:16:33.577Z,74.85
2023-02-24T23:19:04.525Z,74.85
2023-02-24T23:21:35.016Z,75.01
2023-02-24T23:24:04.307Z,75.15
2023-02-24T23:26:38.426Z,75.42
2023-02-24T23:29:07.959Z,75.56
2023-02-24T23:31:36.868Z,75.68
2023-02-24T23:34:07.466Z,75.92
2023-02-24T23:36:38.646Z,75.72
2023-02-24T23:39:13.430Z,75.81
2023-02-24T23:41:41.761Z,75.73
2023-02-24T23:44:09.815Z,75.89
2023-02-24T23:46:37.860Z,76.07
2023-02-24T23:49:10.509Z,76.18
2023-02-24T23:51:48.075Z,76.29
2023-02-24T23:54:17.989Z,76.39
2023-02-24T23:56:46.639Z,76.26
2023-02-24T23:59:24.251Z,76.32
